createdAt,value
2023-08-06T00:00:52.062Z,99874.22
2023-08-06T00:03:22.263Z,99877.56
2023-08-06T00:06:00.054Z,99890.84
2023-08-06T00:08:30.069Z,99884.97
2023-08-06T00:11:00.341Z,99883.81
2023-08-06T00:13:35.526Z,99892.66
2023-08-06T00:16:15.419Z,99895.16
2023-08-06T00:18:47.656Z,99897.16
2023-08-06T00:21:20.177Z,99900.50
2023-08-06T00:23:51.711Z,99898.97
2023-08-06T00:26:27.881Z,99908.94
2023-08-06T00:28:59.017Z,99898.59
2023-08-06T00:31:29.364Z,99905.09
2023-08-06T00:34:04.060Z,99902.91
2023-08-06T00:36:33.092Z,99897.81
2023-08-06T00:39:03.720Z,99907.59
2023-08-06T00:41:32.818Z,99905.19
2023-08-06T00:44:06.671Z,99903.50
2023-08-06T00:46:36.475Z,99892.41
2023-08-06T00:49:05.898Z,99902.47
2023-08-06T00:51:38.471Z,99902.31
2023-08-06T00:54:07.664Z,99911.78
2023-08-06T00:56:38.160Z,99897.66
2023-08-06T00:59:09.083Z,99897.81
2023-08-06T01:02:03.524Z,99908.13
2023-08-06T01:04:34.859Z,99903.50
2023-08-06T01:07:12.440Z,99914.22
2023-08-06T01:09:56.925Z,99921.44
2023-08-06T01:12:42.682Z,99916.41
2023-08-06T01:15:19.643Z,99899.03
2023-08-06T01:17:49.439Z,99910.72
2023-08-06T01:20:21.207Z,99918.03
2023-08-06T01:22:57.624Z,99908.41
2023-08-06T01:25:33.317Z,99902.59
2023-08-06T01:28:10.243Z,99910.50
2023-08-06T01:30:43.883Z,99907.56
2023-08-06T01:33:18.365Z,99903.63
2023-08-06T01:35:47.600Z,99920.84
2023-08-06T01:38:20.101Z,99920.84
2023-08-06T01:40:49.040Z,99914.69
2023-08-06T01:43:17.924Z,99921.06
2023-08-06T01:45:47.093Z,99912.53
2023-08-06T01:48:23.050Z,99918.59
2023-08-06T01:50:59.060Z,99919.34
2023-08-06T01:53:35.315Z,99927.81
2023-08-06T01:56:09.550Z,99915.09
2023-08-06T01:58:47.661Z,99934.88
2023-08-06T02:01:16.680Z,99931.84
2023-08-06T02:03:45.554Z,99940.53
2023-08-06T02:06:18.510Z,99927.84
2023-08-06T02:08:49.329Z,99936.28
2023-08-06T02:11:19.781Z,99944.00
2023-08-06T02:13:51.703Z,99924.09
2023-08-06T02:16:25.636Z,99919.75
2023-08-06T02:19:00.194Z,99935.19
2023-08-06T02:21:37.732Z,99938.84
2023-08-06T02:24:10.623Z,99935.31
2023-08-06T02:26:46.351Z,99941.47
2023-08-06T02:29:17.090Z,99942.34
2023-08-06T02:31:50.902Z,99943.38
2023-08-06T02:34:22.682Z,99923.78
2023-08-06T02:36:54.883Z,99940.22
2023-08-06T02:39:30.652Z,99933.22
2023-08-06T02:42:08.359Z,99922.28
2023-08-06T02:44:43.215Z,99940.13
2023-08-06T02:47:19.315Z,99932.84
2023-08-06T02:49:51.612Z,99939.38
2023-08-06T02:52:31.500Z,99940.53
2023-08-06T02:55:14.945Z,99932.13
2023-08-06T02:57:50.379Z,99941.41
2023-08-06T03:00:40.452Z,99929.22
2023-08-06T03:03:24.244Z,99950.56
2023-08-06T03:06:04.003Z,99918.34
2023-08-06T03:08:41.434Z,99938.63
2023-08-06T03:11:14.008Z,99936.50
2023-08-06T03:13:50.270Z,99921.66
2023-08-06T03:16:20.118Z,99938.66
2023-08-06T03:18:57.141Z,99938.00
2023-08-06T03:21:29.192Z,99947.47
2023-08-06T03:24:03.250Z,99944.72
2023-08-06T03:26:37.831Z,99937.63
2023-08-06T03:29:06.897Z,99944.22
2023-08-06T03:31:37.365Z,99943.97
2023-08-06T03:34:21.863Z,99938.75
2023-08-06T03:36:54.412Z,99938.81
2023-08-06T03:39:28.195Z,99939.59
2023-08-06T03:42:05.234Z,99925.78
2023-08-06T03:44:38.069Z,99949.59
2023-08-06T03:47:12.240Z,99939.16
2023-08-06T03:49:41.699Z,99931.84
2023-08-06T03:52:14.741Z,99949.06
2023-08-06T03:54:47.456Z,99931.97
2023-08-06T03:57:24.463Z,99937.06
2023-08-06T04:00:02.966Z,99935.69
2023-08-06T04:02:36.851Z,99932.19
2023-08-06T04:05:09.729Z,99928.53
2023-08-06T04:07:38.864Z,99913.59
2023-08-06T04:10:10.604Z,99923.06
2023-08-06T04:12:43.376Z,99910.69
2023-08-06T04:15:19.091Z,99925.66
2023-08-06T04:17:50.839Z,99919.72
2023-08-06T04:20:22.766Z,99905.84
2023-08-06T04:22:52.099Z,99922.19
2023-08-06T04:25:25.048Z,99927.06
2023-08-06T04:28:01.415Z,99935.97
2023-08-06T04:30:30.652Z,99933.31
2023-08-06T04:33:02.295Z,99919.63
2023-08-06T04:35:31.684Z,99918.44
2023-08-06T04:38:04.269Z,99926.59
2023-08-06T04:40:37.987Z,99928.91
2023-08-06T04:43:14.157Z,99919.59
2023-08-06T04:45:53.378Z,99929.25
2023-08-06T04:48:26.914Z,99929.78
2023-08-06T04:51:02.073Z,99939.84
2023-08-06T04:53:35.733Z,99929.53
2023-08-06T04:56:21.106Z,99929.84
2023-08-06T04:59:08.335Z,99923.47
2023-08-06T05:01:55.299Z,99911.75
2023-08-06T05:04:29.136Z,99930.72
2023-08-06T05:07:01.783Z,99923.72
2023-08-06T05:09:56.211Z,99924.13
2023-08-06T05:13:00.186Z,99919.56
2023-08-06T05:15:57.411Z,99925.84
2023-08-06T05:18:44.381Z,99932.94
2023-08-06T05:21:49.272Z,99922.22
2023-08-06T05:25:28.836Z,99920.09
2023-08-06T05:28:51.173Z,99895.91
2023-08-06T05:35:23.160Z,99905.53
2023-08-06T05:38:14.260Z,99901.78
2023-08-06T05:45:57.319Z,99911.47
2023-08-06T05:49:05.693Z,99906.78
2023-08-06T05:56:43.324Z,99916.13
2023-08-06T05:59:45.532Z,99899.78
2023-08-06T06:02:33.359Z,99905.72
2023-08-06T06:05:34.316Z,99893.84
2023-08-06T06:08:13.411Z,99903.78
2023-08-06T06:12:11.422Z,99901.13
2023-08-06T06:15:23.308Z,99886.94
2023-08-06T06:17:55.216Z,99882.56
2023-08-06T06:20:28.688Z,99895.88
2023-08-06T06:22:57.221Z,99903.03
2023-08-06T06:25:26.702Z,99899.91
2023-08-06T06:28:05.496Z,99886.19
2023-08-06T06:30:44.570Z,99881.22
2023-08-06T06:33:36.649Z,99884.25
2023-08-06T06:49:36.267Z,99889.75
2023-08-06T06:52:31.814Z,99879.69
2023-08-06T06:55:54.016Z,99881.88
2023-08-06T07:01:43.905Z,99870.69
2023-08-06T07:04:12.794Z,99882.88
2023-08-06T07:07:35.527Z,99866.44
2023-08-06T07:13:22.101Z,99867.91
2023-08-06T07:15:57.196Z,99873.03
2023-08-06T07:18:30.801Z,99884.72
2023-08-06T07:21:16.395Z,99874.06
2023-08-06T07:25:01.716Z,99871.97
2023-08-06T07:28:16.594Z,99866.03
2023-08-06T09:03:02.126Z,99817.22
2023-08-06T09:19:42.078Z,99816.16
2023-08-06T09:35:08.602Z,99812.25
2023-08-06T09:38:03.870Z,99805.34
2023-08-06T09:41:28.191Z,99807.03
2023-08-06T10:29:29.643Z,99745.56
2023-08-06T10:32:41.615Z,99743.19
2023-08-06T10:35:51.710Z,99742.88
2023-08-06T10:43:57.199Z,99730.91
2023-08-06T10:46:43.751Z,99740.50
2023-08-06T10:49:21.206Z,99745.41
2023-08-06T10:51:52.593Z,99742.72
2023-08-06T10:54:21.813Z,99736.34
2023-08-06T10:56:52.942Z,99741.44
2023-08-06T10:59:39.616Z,99726.06
2023-08-06T11:02:13.259Z,99741.94
2023-08-06T11:05:02.279Z,99728.16
2023-08-06T11:07:34.497Z,99729.75
2023-08-06T11:10:08.011Z,99734.59
2023-08-06T11:12:37.290Z,99731.06
2023-08-06T11:15:07.240Z,99740.06
2023-08-06T11:17:37.638Z,99719.53
2023-08-06T11:20:08.852Z,99727.47
2023-08-06T11:22:39.218Z,99733.28
2023-08-06T11:25:12.703Z,99723.69
2023-08-06T11:27:43.569Z,99731.53
2023-08-06T11:30:14.353Z,99728.50
2023-08-06T11:32:53.282Z,99723.03
2023-08-06T11:35:31.077Z,99725.34
2023-08-06T11:38:01.999Z,99725.81
2023-08-06T11:40:35.845Z,99722.66
2023-08-06T11:43:58.786Z,99723.53
2023-08-06T11:47:10.096Z,99704.44
2023-08-06T11:49:48.248Z,99704.41
2023-08-06T11:52:36.767Z,99714.19
2023-08-06T11:55:43.108Z,99694.28
2023-08-06T11:59:31.340Z,99701.13
2023-08-06T12:02:47.037Z,99691.81
2023-08-06T12:06:38.594Z,99695.91
2023-08-06T12:09:33.084Z,99710.78
2023-08-06T12:12:49.941Z,99694.78
2023-08-06T12:15:44.436Z,99698.38
2023-08-06T12:19:06.294Z,99700.47
2023-08-06T12:21:56.971Z,99693.28
2023-08-06T12:24:54.483Z,99698.22
2023-08-06T12:27:45.677Z,99690.19
2023-08-06T12:30:34.879Z,99691.78
2023-08-06T12:33:09.269Z,99689.66
2023-08-06T12:35:43.242Z,99687.88
2023-08-06T12:38:12.227Z,99684.56
2023-08-06T12:40:44.091Z,99683.84
2023-08-06T12:43:13.267Z,99685.53
2023-08-06T12:46:25.708Z,99679.47
2023-08-06T12:49:47.245Z,99680.47
2023-08-06T12:52:58.270Z,99684.13
2023-08-06T12:56:17.957Z,99680.88
2023-08-06T12:59:02.786Z,99678.38
2023-08-06T13:01:34.788Z,99674.16
2023-08-06T13:07:23.141Z,99666.66
2023-08-06T13:10:06.469Z,99653.63
2023-08-06T13:12:37.070Z,99660.16
2023-08-06T13:15:06.434Z,99666.22
2023-08-06T13:17:36.480Z,99666.94
2023-08-06T13:20:55.688Z,99670.00
2023-08-06T13:23:24.519Z,99657.53
2023-08-06T13:25:53.077Z,99662.31
2023-08-06T13:28:23.257Z,99662.59
2023-08-06T13:30:52.027Z,99644.91
2023-08-06T13:33:20.668Z,99657.69
2023-08-06T13:35:49.289Z,99646.22
2023-08-06T13:38:18.212Z,99653.34
2023-08-06T13:40:47.639Z,99647.44
2023-08-06T13:43:18.393Z,99656.06
2023-08-06T13:45:51.135Z,99652.31
2023-08-06T13:48:23.044Z,99649.44
2023-08-06T13:50:52.024Z,99654.66
2023-08-06T13:53:20.458Z,99640.84
2023-08-06T13:55:48.994Z,99641.63
2023-08-06T13:58:17.479Z,99647.44
2023-08-06T14:00:47.578Z,99644.75
2023-08-06T14:03:16.275Z,99644.03
2023-08-06T14:05:45.359Z,99640.41
2023-08-06T14:08:15.049Z,99636.28
2023-08-06T14:10:43.991Z,99641.16
2023-08-06T14:13:12.522Z,99640.09
2023-08-06T14:15:41.812Z,99635.41
2023-08-06T14:18:14.323Z,99636.16
2023-08-06T14:20:45.888Z,99638.53
2023-08-06T14:23:15.645Z,99635.00
2023-08-06T14:25:44.186Z,99627.44
2023-08-06T14:28:41.091Z,99610.34
2023-08-06T14:31:42.163Z,99629.69
2023-08-06T14:43:10.474Z,99625.16
2023-08-06T14:45:40.725Z,99623.56
2023-08-06T14:48:18.359Z,99615.66
2023-08-06T14:50:51.372Z,99613.66
2023-08-06T14:53:20.116Z,99616.66
2023-08-06T14:55:49.079Z,99621.84
2023-08-06T14:58:19.794Z,99623.25
2023-08-06T15:00:48.733Z,99628.34
2023-08-06T15:03:21.306Z,99606.16
2023-08-06T15:05:51.732Z,99602.34
2023-08-06T15:08:23.705Z,99617.34
2023-08-06T15:10:56.865Z,99603.34
2023-08-06T15:13:35.405Z,99606.03
2023-08-06T15:16:04.124Z,99608.78
2023-08-06T15:18:32.680Z,99616.81
2023-08-06T15:21:02.772Z,99620.31
2023-08-06T15:23:31.230Z,99615.84
2023-08-06T15:26:00.114Z,99623.38
2023-08-06T15:28:28.639Z,99621.94
2023-08-06T15:30:57.825Z,99615.56
2023-08-06T15:33:28.313Z,99623.19
2023-08-06T15:35:57.115Z,99628.94
2023-08-06T15:38:28.915Z,99628.38
2023-08-06T15:40:58.488Z,99623.91
2023-08-06T15:43:27.137Z,99622.53
2023-08-06T15:45:55.905Z,99631.31
2023-08-06T15:48:24.828Z,99606.84
2023-08-06T15:50:54.371Z,99619.16
2023-08-06T15:53:23.087Z,99621.72
2023-08-06T15:55:53.395Z,99616.13
2023-08-06T15:58:21.906Z,99624.09
2023-08-06T16:00:50.421Z,99607.72
2023-08-06T16:03:19.134Z,99621.25
2023-08-06T16:05:47.843Z,99610.94
2023-08-06T16:08:16.234Z,99602.84
2023-08-06T16:10:46.450Z,99610.63
2023-08-06T16:13:17.889Z,99610.78
2023-08-06T16:15:47.181Z,99614.75
2023-08-06T16:18:16.010Z,99609.28
2023-08-06T16:20:45.127Z,99613.09
2023-08-06T16:23:14.067Z,99622.81
2023-08-06T16:25:46.496Z,99615.34
2023-08-06T16:28:17.151Z,99609.72
2023-08-06T16:30:47.254Z,99600.47
2023-08-06T16:33:16.080Z,99601.19
2023-08-06T16:35:45.432Z,99622.72
2023-08-06T16:38:16.560Z,99627.47
2023-08-06T16:40:54.261Z,99611.31
2023-08-06T16:43:25.874Z,99622.28
2023-08-06T16:45:55.838Z,99621.88
2023-08-06T16:48:28.478Z,99622.16
2023-08-06T16:50:58.151Z,99613.97
2023-08-06T16:53:30.446Z,99619.22
2023-08-06T16:56:07.442Z,99624.56
2023-08-06T16:58:45.770Z,99632.00
2023-08-06T17:01:16.308Z,99629.03
2023-08-06T17:03:52.151Z,99619.31
2023-08-06T17:06:20.746Z,99631.44
2023-08-06T17:08:49.173Z,99630.44
2023-08-06T17:11:18.389Z,99624.50
2023-08-06T17:13:49.494Z,99630.00
2023-08-06T17:16:19.110Z,99617.31
2023-08-06T17:18:47.763Z,99631.63
2023-08-06T17:21:16.402Z,99629.78
2023-08-06T17:23:45.212Z,99631.31
2023-08-06T17:26:13.846Z,99633.69
2023-08-06T17:28:42.548Z,99636.47
2023-08-06T17:31:12.530Z,99626.00
2023-08-06T17:33:41.079Z,99629.03
2023-08-06T17:36:10.959Z,99634.81
2023-08-06T17:39:13.432Z,99621.00
2023-08-06T17:41:43.847Z,99627.13
2023-08-06T17:44:17.298Z,99620.53
2023-08-06T17:46:51.396Z,99615.69
2023-08-06T17:49:27.696Z,99629.69
2023-08-06T17:51:56.380Z,99630.03
2023-08-06T17:54:25.538Z,99635.63
2023-08-06T17:56:56.260Z,99638.28
2023-08-06T17:59:27.171Z,99633.44
2023-08-06T18:01:57.288Z,99628.44
2023-08-06T18:04:26.072Z,99634.53
2023-08-06T18:06:54.940Z,99630.03
2023-08-06T18:09:23.787Z,99629.41
2023-08-06T18:11:52.287Z,99620.94
2023-08-06T18:14:20.802Z,99631.28
2023-08-06T18:16:49.298Z,99629.28
2023-08-06T18:19:19.623Z,99617.31
2023-08-06T18:21:48.245Z,99635.00
2023-08-06T18:24:17.102Z,99631.22
2023-08-06T18:26:45.675Z,99631.06
2023-08-06T18:29:14.252Z,99633.47
2023-08-06T18:31:42.806Z,99635.31
2023-08-06T18:34:11.945Z,99629.50
2023-08-06T18:36:41.794Z,99632.91
2023-08-06T18:39:10.583Z,99632.31
2023-08-06T18:41:39.150Z,99632.66
2023-08-06T18:44:07.744Z,99630.38
2023-08-06T18:46:36.961Z,99630.78
2023-08-06T18:49:05.894Z,99622.53
2023-08-06T18:51:34.449Z,99616.38
2023-08-06T18:54:04.397Z,99627.28
2023-08-06T18:56:32.923Z,99623.97
2023-08-06T18:59:04.365Z,99631.88
2023-08-06T19:01:32.966Z,99622.25
2023-08-06T19:04:01.499Z,99626.22
2023-08-06T19:06:32.021Z,99630.97
2023-08-06T19:09:00.854Z,99619.63
2023-08-06T19:11:31.760Z,99613.06
2023-08-06T19:14:00.430Z,99619.41
2023-08-06T19:16:28.932Z,99611.44
2023-08-06T19:18:57.652Z,99622.09
2023-08-06T19:21:26.264Z,99621.00
2023-08-06T19:23:55.914Z,99602.75
2023-08-06T19:26:24.645Z,99615.22
2023-08-06T19:28:56.263Z,99617.00
2023-08-06T19:31:25.948Z,99590.91
2023-08-06T19:33:59.289Z,99610.84
2023-08-06T19:36:29.085Z,99611.22
2023-08-06T19:38:57.638Z,99604.91
2023-08-06T19:41:26.346Z,99589.09
2023-08-06T19:43:57.659Z,99608.31
2023-08-06T19:46:26.291Z,99613.66
2023-08-06T19:48:54.969Z,99601.75
2023-08-06T19:51:23.811Z,99602.41
2023-08-06T19:53:52.186Z,99605.91
2023-08-06T19:56:23.109Z,99608.66
2023-08-06T19:58:54.536Z,99606.84
2023-08-06T20:01:24.712Z,99601.53
2023-08-06T20:03:53.066Z,99610.13
2023-08-06T20:06:27.463Z,99603.63
2023-08-06T20:08:56.613Z,99604.81
2023-08-06T20:11:25.711Z,99588.97
2023-08-06T20:13:54.590Z,99598.28
2023-08-06T20:16:24.495Z,99604.56
2023-08-06T20:18:53.351Z,99599.72
2023-08-06T20:21:22.049Z,99603.31
2023-08-06T20:24:03.931Z,99601.66
2023-08-06T20:26:32.567Z,99599.00
2023-08-06T20:29:02.290Z,99597.22
2023-08-06T20:31:32.410Z,99595.38
2023-08-06T20:34:03.382Z,99598.06
2023-08-06T20:36:32.642Z,99600.22
2023-08-06T20:39:01.079Z,99599.84
2023-08-06T20:41:29.709Z,99601.94
2023-08-06T20:43:58.164Z,99611.69
2023-08-06T20:46:26.785Z,99604.81
2023-08-06T20:48:57.065Z,99590.19
2023-08-06T20:51:25.645Z,99604.19
2023-08-06T20:53:54.167Z,99603.84
2023-08-06T20:56:22.755Z,99597.09
2023-08-06T20:58:51.352Z,99611.69
2023-08-06T21:01:20.244Z,99604.66
2023-08-06T21:03:50.503Z,99609.75
2023-08-06T21:06:33.728Z,99597.78
2023-08-06T21:09:05.176Z,99597.31
2023-08-06T21:11:34.054Z,99590.56
2023-08-06T21:14:02.582Z,99600.69
2023-08-06T21:16:31.934Z,99610.53
2023-08-06T21:19:01.844Z,99614.84
2023-08-06T21:21:32.814Z,99598.75
2023-08-06T21:24:01.876Z,99618.69
2023-08-06T21:26:30.621Z,99610.72
2023-08-06T21:28:59.167Z,99613.53
2023-08-06T21:31:28.441Z,99605.75
2023-08-06T21:33:56.869Z,99621.84
2023-08-06T21:36:26.580Z,99612.66
2023-08-06T21:38:56.575Z,99603.84
2023-08-06T21:41:25.125Z,99615.09
2023-08-06T21:43:54.877Z,99614.13
2023-08-06T21:46:23.523Z,99614.81
2023-08-06T21:48:52.509Z,99624.25
2023-08-06T21:51:21.892Z,99613.25
2023-08-06T21:53:50.652Z,99618.16
2023-08-06T21:56:20.642Z,99609.72
2023-08-06T21:58:50.882Z,99620.75
2023-08-06T22:01:19.758Z,99609.22
2023-08-06T22:03:49.894Z,99619.47
2023-08-06T22:06:18.739Z,99619.50
2023-08-06T22:08:47.144Z,99618.56
2023-08-06T22:11:15.740Z,99617.75
2023-08-06T22:13:45.952Z,99616.50
2023-08-06T22:16:17.004Z,99619.72
2023-08-06T22:18:45.534Z,99614.88
2023-08-06T22:21:14.030Z,99625.78
2023-08-06T22:23:43.982Z,99622.31
2023-08-06T22:26:12.865Z,99606.13
2023-08-06T22:28:51.740Z,99616.28
2023-08-06T22:31:29.987Z,99613.75
2023-08-06T22:33:58.721Z,99600.47
2023-08-06T22:36:28.277Z,99612.84
2023-08-06T22:38:56.674Z,99606.88
2023-08-06T22:41:26.086Z,99609.22
2023-08-06T22:43:54.745Z,99603.13
2023-08-06T22:46:23.982Z,99614.41
2023-08-06T22:48:54.054Z,99600.06
2023-08-06T22:51:24.300Z,99613.59
2023-08-06T22:53:52.816Z,99606.81
2023-08-06T22:56:21.528Z,99607.50
2023-08-06T22:58:51.236Z,99610.19
2023-08-06T23:01:20.233Z,99608.34
2023-08-06T23:03:49.727Z,99607.72
2023-08-06T23:06:19.655Z,99613.22
2023-08-06T23:08:50.026Z,99606.31
2023-08-06T23:11:18.877Z,99602.84
2023-08-06T23:13:49.174Z,99593.75
2023-08-06T23:16:17.894Z,99600.31
2023-08-06T23:18:46.480Z,99603.28
2023-08-06T23:21:15.108Z,99604.00
2023-08-06T23:23:44.966Z,99598.31
2023-08-06T23:26:13.545Z,99594.41
2023-08-06T23:28:44.327Z,99583.69
2023-08-06T23:31:13.743Z,99598.88
2023-08-06T23:33:42.748Z,99590.28
2023-08-06T23:36:11.233Z,99597.28
2023-08-06T23:38:39.783Z,99593.25
2023-08-06T23:41:10.414Z,99574.94
2023-08-06T23:43:39.006Z,99582.47
2023-08-06T23:46:07.652Z,99586.00
2023-08-06T23:48:36.464Z,99577.09
2023-08-06T23:51:05.258Z,99577.41
2023-08-06T23:53:34.156Z,99569.84
2023-08-06T23:56:02.675Z,99562.69
2023-08-06T23:58:32.753Z,99573.28
